createdAt,value
2019-06-01T00:01:20.748Z,1.43
2019-06-01T00:04:25.588Z,1.70
2019-06-01T00:07:28.833Z,1.73
2019-06-01T00:10:31.737Z,2.30
2019-06-01T00:13:35.357Z,1.60
2019-06-01T00:16:39.968Z,1.77
2019-06-01T00:19:44.023Z,1.47
2019-06-01T00:22:47.514Z,2.20
2019-06-01T00:25:50.616Z,1.70
2019-06-01T00:28:53.957Z,1.77
2019-06-01T00:31:57.825Z,2.07
2019-06-01T00:35:00.881Z,1.63
2019-06-01T00:38:03.919Z,1.73
2019-06-01T00:41:07.588Z,1.63
2019-06-01T00:44:11.307Z,1.60
2019-06-01T00:47:14.942Z,2.10
2019-06-01T00:50:18.609Z,1.53
2019-06-01T00:53:22.068Z,1.40
2019-06-01T00:56:25.091Z,2.17
2019-06-01T00:59:28.352Z,3.40
2019-06-01T01:02:31.604Z,2.13
2019-06-01T01:05:34.824Z,2.30
2019-06-01T01:08:38.440Z,1.73
2019-06-01T01:11:41.380Z,2.23
2019-06-01T01:14:45.146Z,2.80
2019-06-01T01:17:49.788Z,2.00
2019-06-01T01:20:54.193Z,2.00
2019-06-01T01:23:57.210Z,1.90
2019-06-01T01:27:00.135Z,2.10
2019-06-01T01:30:05.030Z,1.90
2019-06-01T01:33:08.943Z,2.93
2019-06-01T01:36:12.159Z,2.50
2019-06-01T01:39:15.156Z,2.13
2019-06-01T01:42:18.688Z,2.90
2019-06-01T01:45:21.732Z,2.67
2019-06-01T01:48:25.264Z,2.53
2019-06-01T01:51:28.642Z,3.63
2019-06-01T01:54:31.653Z,2.50
2019-06-01T01:57:34.862Z,3.10
2019-06-01T02:00:44.110Z,2.47
2019-06-01T02:03:47.340Z,2.80
2019-06-01T02:06:50.389Z,2.93
2019-06-01T02:09:53.630Z,2.40
2019-06-01T02:12:57.517Z,3.03
2019-06-01T02:16:02.445Z,2.17
2019-06-01T02:19:05.669Z,2.87
2019-06-01T02:22:09.261Z,2.47
2019-06-01T02:25:12.283Z,2.57
2019-06-01T02:28:15.901Z,2.77
2019-06-01T02:31:19.141Z,2.50
2019-06-01T02:34:22.061Z,2.20
2019-06-01T02:37:25.292Z,2.83
2019-06-01T02:40:28.688Z,2.73
2019-06-01T02:43:31.932Z,3.47
2019-06-01T02:46:35.996Z,2.70
2019-06-01T02:49:39.339Z,3.40
2019-06-01T02:52:42.730Z,3.33
2019-06-01T02:55:46.005Z,3.07
2019-06-01T02:58:48.937Z,3.10
2019-06-01T03:01:57.425Z,2.20
2019-06-01T03:04:59.047Z,2.70
2019-06-01T03:08:03.457Z,4.03
2019-06-01T03:11:10.406Z,2.10
2019-06-01T03:14:13.655Z,2.13
2019-06-01T03:17:21.052Z,2.73
2019-06-01T03:20:26.946Z,2.00
2019-06-01T03:23:33.744Z,2.60
2019-06-01T03:26:45.016Z,1.93
2019-06-01T03:29:55.912Z,3.50
2019-06-01T03:33:01.036Z,2.40
2019-06-01T03:36:04.994Z,2.93
2019-06-01T03:39:08.284Z,2.63
2019-06-01T03:42:11.729Z,2.73
2019-06-01T03:45:14.795Z,3.13
2019-06-01T03:48:18.056Z,2.43
2019-06-01T03:51:21.319Z,2.03
2019-06-01T03:54:24.764Z,2.90
2019-06-01T03:57:28.075Z,2.07
2019-06-01T04:00:31.375Z,3.13
2019-06-01T04:03:34.280Z,2.97
2019-06-01T04:06:38.038Z,2.77
2019-06-01T04:09:41.532Z,2.60
2019-06-01T04:12:45.219Z,3.00
2019-06-01T04:15:48.436Z,2.20
2019-06-01T04:18:51.722Z,2.03
2019-06-01T04:21:54.983Z,2.10
2019-06-01T04:24:58.220Z,3.10
2019-06-01T04:28:02.154Z,2.03
2019-06-01T04:31:06.491Z,2.97
2019-06-01T04:34:11.014Z,2.20
2019-06-01T04:37:14.036Z,2.60
2019-06-01T04:40:17.563Z,2.43
2019-06-01T04:43:20.870Z,2.30
2019-06-01T04:46:23.759Z,4.17
2019-06-01T04:49:26.693Z,3.17
2019-06-01T04:52:30.209Z,2.57
2019-06-01T04:55:33.437Z,2.60
2019-06-01T04:58:37.030Z,2.03
2019-06-01T05:01:40.344Z,2.20
2019-06-01T05:04:43.720Z,3.10
2019-06-01T05:07:47.024Z,3.20
2019-06-01T05:10:49.958Z,3.00
2019-06-01T05:13:53.196Z,2.70
2019-06-01T05:16:56.807Z,2.40
2019-06-01T05:20:00.108Z,2.47
2019-06-01T05:23:03.815Z,2.93
2019-06-01T05:26:07.149Z,2.70
2019-06-01T05:29:11.678Z,2.50
2019-06-01T05:32:15.024Z,2.93
2019-06-01T05:35:18.531Z,2.50
2019-06-01T05:38:21.459Z,2.83
2019-06-01T05:41:24.775Z,2.77
2019-06-01T05:44:28.084Z,2.57
2019-06-01T05:47:30.988Z,2.70
2019-06-01T05:50:33.928Z,2.10
2019-06-01T05:53:37.687Z,2.50
2019-06-01T05:56:40.988Z,2.53
2019-06-01T05:59:43.949Z,2.80
2019-06-01T06:02:47.201Z,3.30
2019-06-01T06:05:50.495Z,2.20
2019-06-01T06:08:53.761Z,2.00
2019-06-01T06:11:56.692Z,2.00
2019-06-01T06:14:59.636Z,2.20
2019-06-01T06:18:03.037Z,1.47
2019-06-01T06:21:05.973Z,2.30
2019-06-01T06:24:09.178Z,2.03
2019-06-01T06:27:12.506Z,2.20
2019-06-01T06:30:15.545Z,1.93
2019-06-01T06:33:19.355Z,2.03
2019-06-01T06:36:22.496Z,2.60
2019-06-01T06:39:25.814Z,2.10
2019-06-01T06:42:29.827Z,2.20
2019-06-01T06:45:33.001Z,2.60
2019-06-01T06:48:35.936Z,2.33
2019-06-01T06:51:38.859Z,2.20
2019-06-01T06:54:41.836Z,1.97
2019-06-01T06:57:44.770Z,2.10
2019-06-01T07:00:48.350Z,2.13
2019-06-01T07:03:51.304Z,2.13
2019-06-01T07:06:54.568Z,2.77
2019-06-01T07:09:57.475Z,1.80
2019-06-01T07:13:00.819Z,2.87
2019-06-01T07:16:04.052Z,1.70
2019-06-01T07:19:07.548Z,2.50
2019-06-01T07:22:10.949Z,2.00
2019-06-01T07:25:13.981Z,1.70
2019-06-01T07:28:17.558Z,1.83
2019-06-01T07:31:20.475Z,1.67
2019-06-01T07:34:35.829Z,2.50
2019-06-01T07:37:29.216Z,1.53
2019-06-01T07:40:33.017Z,2.03
2019-06-01T07:43:36.100Z,1.87
2019-06-01T07:46:40.770Z,2.10
2019-06-01T07:49:44.060Z,1.60
2019-06-01T07:52:47.321Z,2.00
2019-06-01T07:55:50.283Z,1.70
2019-06-01T07:58:53.497Z,1.53
2019-06-01T08:01:57.178Z,1.70
2019-06-01T08:05:00.495Z,1.40
2019-06-01T08:08:03.423Z,1.97
2019-06-01T08:11:06.351Z,1.20
2019-06-01T08:14:09.600Z,2.00
2019-06-01T08:17:13.939Z,1.83
2019-06-01T08:20:16.981Z,2.13
2019-06-01T08:23:20.227Z,1.60
2019-06-01T08:26:24.421Z,2.63
2019-06-01T08:29:28.845Z,1.53
2019-06-01T08:32:32.911Z,2.23
2019-06-01T08:35:36.340Z,2.20
2019-06-01T08:38:39.562Z,1.50
2019-06-01T08:41:42.485Z,1.87
2019-06-01T08:44:46.063Z,1.80
2019-06-01T08:47:49.018Z,1.87
2019-06-01T08:50:51.932Z,1.93
2019-06-01T08:53:54.925Z,1.87
2019-06-01T08:56:58.212Z,2.20
2019-06-01T09:00:01.126Z,1.37
2019-06-01T09:03:04.073Z,1.70
2019-06-01T09:06:07.007Z,1.70
2019-06-01T09:09:11.878Z,1.53
2019-06-01T09:12:14.833Z,1.93
2019-06-01T09:15:17.967Z,1.77
2019-06-01T09:18:20.888Z,1.40
2019-06-01T09:21:25.311Z,1.83
2019-06-01T09:24:29.766Z,1.43
2019-06-01T09:27:33.939Z,1.70
2019-06-01T09:30:36.983Z,2.00
2019-06-01T09:33:39.917Z,1.80
2019-06-01T09:36:42.899Z,1.40
2019-06-01T09:39:46.571Z,1.53
2019-06-01T09:42:49.883Z,1.63
2019-06-01T09:45:53.739Z,1.90
2019-06-01T09:48:57.053Z,1.60
2019-06-01T09:52:00.718Z,1.47
2019-06-01T09:55:04.199Z,2.03
2019-06-01T09:58:07.411Z,1.57
2019-06-01T10:01:10.675Z,1.70
2019-06-01T10:04:13.640Z,1.63
2019-06-01T10:07:17.589Z,1.47
2019-06-01T10:10:20.782Z,1.43
2019-06-01T10:13:24.000Z,1.90
2019-06-01T10:16:27.311Z,999.90
2019-06-01T10:19:30.705Z,999.90
2019-06-01T10:22:35.108Z,949.47
2019-06-01T10:25:38.616Z,943.03
2019-06-01T10:28:41.995Z,469.80
2019-06-01T10:31:45.382Z,990.10
2019-06-01T10:34:48.647Z,861.53
2019-06-01T10:37:51.925Z,480.43
2019-06-01T10:40:54.873Z,509.63
2019-06-01T10:43:58.191Z,71.50
2019-06-01T10:47:01.121Z,9.27
2019-06-01T10:50:04.946Z,24.07
2019-06-01T10:53:07.881Z,17.00
2019-06-01T10:56:10.919Z,3.13
2019-06-01T10:59:13.959Z,4.87
2019-06-01T11:02:16.976Z,1.80
2019-06-01T11:05:20.312Z,2.57
2019-06-01T11:08:23.476Z,2.33
2019-06-01T11:11:26.816Z,1.60
2019-06-01T11:14:30.007Z,2.33
2019-06-01T11:17:32.961Z,1.57
2019-06-01T11:20:37.318Z,1.10
2019-06-01T11:23:46.609Z,1.50
2019-06-01T11:26:51.981Z,1.50
2019-06-01T11:29:55.674Z,1.00
2019-06-01T11:32:59.021Z,1.70
2019-06-01T11:36:01.914Z,1.23
2019-06-01T11:39:06.836Z,1.43
2019-06-01T11:42:09.871Z,1.50
2019-06-01T11:45:12.886Z,1.20
2019-06-01T11:48:16.160Z,1.63
2019-06-01T11:51:19.074Z,1.73
2019-06-01T11:54:22.734Z,1.60
2019-06-01T11:57:25.963Z,1.30
2019-06-01T12:00:28.916Z,1.30
2019-06-01T12:03:32.179Z,1.33
2019-06-01T12:06:35.873Z,1.50
2019-06-01T12:09:39.916Z,1.80
2019-06-01T12:12:44.217Z,2.07
2019-06-01T12:15:47.723Z,1.40
2019-06-01T12:18:51.909Z,1.80
2019-06-01T12:21:55.178Z,1.27
2019-06-01T12:24:58.427Z,1.90
2019-06-01T12:28:01.664Z,1.67
2019-06-01T12:31:05.285Z,1.33
2019-06-01T12:34:08.555Z,1.70
2019-06-01T12:37:11.809Z,1.60
2019-06-01T12:40:15.093Z,1.70
2019-06-01T12:43:18.100Z,1.50
2019-06-01T12:46:21.358Z,2.00
2019-06-01T12:49:24.686Z,2.20
2019-06-01T12:52:27.950Z,2.33
2019-06-01T12:55:31.221Z,1.50
2019-06-01T12:58:34.439Z,1.70
2019-06-01T13:01:38.456Z,1.70
2019-06-01T13:04:42.778Z,1.53
2019-06-01T13:07:57.771Z,1.80
2019-06-01T13:10:51.953Z,2.07
2019-06-01T13:13:55.645Z,1.40
2019-06-01T13:17:07.013Z,1.70
2019-06-01T13:20:04.700Z,2.37
2019-06-01T13:23:07.995Z,2.23
2019-06-01T13:26:11.577Z,2.00
2019-06-01T13:29:14.526Z,1.33
2019-06-01T13:32:18.132Z,1.60
2019-06-01T13:35:21.169Z,2.07
2019-06-01T13:38:24.087Z,1.57
2019-06-01T13:41:27.033Z,1.83
2019-06-01T13:44:30.557Z,1.77
2019-06-01T13:47:33.825Z,1.63
2019-06-01T13:50:37.120Z,1.57
2019-06-01T13:53:40.035Z,1.50
2019-06-01T13:56:44.614Z,1.40
2019-06-01T13:59:48.785Z,1.47
2019-06-01T14:02:55.544Z,1.53
2019-06-01T14:05:56.727Z,1.60
2019-06-01T14:08:59.671Z,1.60
2019-06-01T14:12:02.627Z,1.93
2019-06-01T14:15:05.777Z,1.43
2019-06-01T14:18:09.044Z,1.70
2019-06-01T14:21:12.307Z,1.60
2019-06-01T14:24:15.266Z,1.50
2019-06-01T14:27:18.187Z,1.70
2019-06-01T14:30:24.019Z,1.70
2019-06-01T14:33:26.368Z,1.37
2019-06-01T14:36:29.291Z,1.53
2019-06-01T14:39:32.781Z,1.97
2019-06-01T14:42:35.793Z,1.87
2019-06-01T14:45:38.726Z,1.50
2019-06-01T14:48:41.977Z,1.97
2019-06-01T14:51:45.262Z,1.50
2019-06-01T14:54:49.546Z,1.50
2019-06-01T14:57:53.981Z,1.17
2019-06-01T15:00:58.538Z,1.70
2019-06-01T15:04:02.000Z,1.60
2019-06-01T15:07:05.296Z,1.27
2019-06-01T15:10:09.456Z,1.30
2019-06-01T15:13:13.072Z,1.57
2019-06-01T15:16:16.658Z,1.40
2019-06-01T15:19:20.296Z,1.40
2019-06-01T15:22:23.612Z,1.43
2019-06-01T15:25:26.553Z,1.53
2019-06-01T15:28:29.769Z,1.67
2019-06-01T15:31:33.053Z,1.30
2019-06-01T15:34:37.673Z,1.30
2019-06-01T15:37:40.601Z,1.30
2019-06-01T15:40:44.277Z,1.40
2019-06-01T15:43:47.581Z,1.30
2019-06-01T15:46:51.533Z,3.07
2019-06-01T15:49:55.751Z,1.60
2019-06-01T15:52:59.400Z,1.77
2019-06-01T15:56:03.523Z,1.70
2019-06-01T15:59:06.591Z,1.73
2019-06-01T16:02:10.357Z,1.20
2019-06-01T16:05:15.112Z,1.30
2019-06-01T16:08:18.654Z,3.10
2019-06-01T16:11:21.609Z,4.50
2019-06-01T16:14:24.546Z,1.67
2019-06-01T16:17:27.817Z,2.37
2019-06-01T16:20:30.867Z,1.80
2019-06-01T16:23:48.598Z,2.42
2019-06-01T16:26:39.794Z,2.10
2019-06-01T16:29:43.299Z,6.20
2019-06-01T16:32:46.625Z,2.03
2019-06-01T16:35:50.454Z,2.10
2019-06-01T16:38:57.946Z,1.60
2019-06-01T16:41:59.701Z,1.60
2019-06-01T16:45:03.822Z,3.07
2019-06-01T16:48:06.967Z,1.50
2019-06-01T16:51:09.891Z,1.50
2019-06-01T16:54:12.815Z,2.53
2019-06-01T16:57:16.108Z,1.40
2019-06-01T17:00:20.151Z,2.07
2019-06-01T17:03:23.827Z,2.03
2019-06-01T17:06:27.118Z,1.67
2019-06-01T17:09:30.048Z,1.43
2019-06-01T17:12:33.284Z,1.63
2019-06-01T17:15:36.573Z,1.40
2019-06-01T17:18:39.491Z,1.43
2019-06-01T17:21:42.764Z,1.40
2019-06-01T17:24:45.738Z,1.83
2019-06-01T17:27:48.655Z,1.27
2019-06-01T17:30:52.090Z,1.67
2019-06-01T17:33:55.105Z,1.30
2019-06-01T17:36:58.685Z,1.97
2019-06-01T17:40:02.533Z,1.30
2019-06-01T17:43:06.984Z,2.43
2019-06-01T17:46:10.191Z,1.80
2019-06-01T17:49:13.194Z,1.33
2019-06-01T17:52:16.601Z,1.70
2019-06-01T17:55:31.288Z,1.43
2019-06-01T17:58:34.338Z,1.93
2019-06-01T18:01:37.251Z,1.90
2019-06-01T18:04:40.547Z,1.40
2019-06-01T18:07:44.015Z,3.03
2019-06-01T18:10:54.548Z,1.60
2019-06-01T18:13:52.406Z,1.60
2019-06-01T18:16:55.952Z,2.13
2019-06-01T18:19:58.890Z,2.50
2019-06-01T18:23:02.499Z,1.70
2019-06-01T18:26:07.031Z,1.57
2019-06-01T18:29:10.746Z,2.00
2019-06-01T18:32:13.804Z,1.60
2019-06-01T18:35:19.669Z,1.90
2019-06-01T18:38:21.653Z,1.70
2019-06-01T18:41:25.248Z,1.30
2019-06-01T18:44:29.321Z,1.67
2019-06-01T18:47:32.803Z,2.43
2019-06-01T18:50:35.981Z,1.87
2019-06-01T18:53:39.014Z,1.70
2019-06-01T18:56:42.197Z,2.10
2019-06-01T18:59:46.226Z,2.10
2019-06-01T19:02:49.483Z,1.93
2019-06-01T19:05:52.761Z,1.80
2019-06-01T19:08:55.914Z,1.70
2019-06-01T19:12:00.191Z,2.50
2019-06-01T19:15:05.960Z,1.70
2019-06-01T19:18:10.444Z,2.40
2019-06-01T19:21:14.838Z,2.20
2019-06-01T19:24:17.979Z,2.67
2019-06-01T19:27:20.902Z,2.33
2019-06-01T19:30:39.142Z,2.27
2019-06-01T19:33:42.043Z,2.00
2019-06-01T19:36:48.950Z,2.23
2019-06-01T19:39:52.781Z,2.63
2019-06-01T19:42:55.703Z,2.67
2019-06-01T19:45:59.594Z,2.60
2019-06-01T19:49:02.612Z,2.77
2019-06-01T19:52:06.669Z,2.90
2019-06-01T19:55:10.798Z,2.03
2019-06-01T19:58:14.425Z,1.80
2019-06-01T20:01:18.399Z,2.00
2019-06-01T20:04:21.451Z,2.10
2019-06-01T20:07:25.993Z,2.83
2019-06-01T20:10:29.613Z,3.83
2019-06-01T20:13:32.559Z,4.00
2019-06-01T20:16:35.489Z,2.30
2019-06-01T20:19:38.788Z,2.27
2019-06-01T20:22:42.053Z,2.40
2019-06-01T20:25:45.328Z,2.10
2019-06-01T20:28:48.260Z,2.07
2019-06-01T20:31:51.390Z,2.30
2019-06-01T20:34:55.798Z,2.27
2019-06-01T20:37:58.738Z,2.00
2019-06-01T20:41:02.356Z,1.83
2019-06-01T20:44:05.778Z,2.27
2019-06-01T20:47:09.134Z,2.47
2019-06-01T20:50:12.729Z,1.77
2019-06-01T20:53:16.901Z,1.47
2019-06-01T20:56:19.837Z,1.90
2019-06-01T20:59:24.536Z,2.10
2019-06-01T21:02:28.280Z,2.00
2019-06-01T21:05:31.496Z,2.47
2019-06-01T21:08:34.775Z,1.93
2019-06-01T21:11:37.700Z,2.40
2019-06-01T21:14:41.119Z,2.20
2019-06-01T21:17:44.764Z,2.00
2019-06-01T21:20:47.665Z,1.90
2019-06-01T21:23:50.613Z,2.13
2019-06-01T21:26:54.346Z,2.40
2019-06-01T21:29:57.254Z,2.73
2019-06-01T21:33:00.230Z,3.30
2019-06-01T21:36:03.535Z,2.93
2019-06-01T21:39:07.280Z,3.13
2019-06-01T21:42:10.657Z,2.27
2019-06-01T21:45:15.503Z,3.33
2019-06-01T21:48:19.732Z,3.10
2019-06-01T21:51:23.906Z,2.33
2019-06-01T21:54:26.988Z,2.47
2019-06-01T21:57:30.278Z,2.70
2019-06-01T22:00:37.141Z,2.67
2019-06-01T22:03:40.366Z,2.27
2019-06-01T22:06:46.313Z,2.80
2019-06-01T22:09:48.475Z,3.20
2019-06-01T22:12:51.742Z,2.57
2019-06-01T22:15:55.300Z,2.33
2019-06-01T22:18:59.656Z,2.97
2019-06-01T22:22:02.600Z,2.87
2019-06-01T22:25:06.351Z,2.80
2019-06-01T22:28:09.309Z,3.57
2019-06-01T22:31:13.200Z,3.30
2019-06-01T22:34:16.153Z,3.10
2019-06-01T22:37:19.889Z,2.43
2019-06-01T22:40:23.187Z,2.40
2019-06-01T22:43:43.401Z,2.47
2019-06-01T22:46:32.724Z,2.00
2019-06-01T22:49:36.223Z,2.50
2019-06-01T22:52:39.447Z,2.60
2019-06-01T22:55:42.831Z,2.53
2019-06-01T22:58:46.070Z,2.10
2019-06-01T23:01:49.640Z,2.37
2019-06-01T23:04:52.931Z,2.40
2019-06-01T23:07:56.158Z,2.27
2019-06-01T23:10:59.391Z,2.83
2019-06-01T23:14:02.395Z,2.20
2019-06-01T23:17:05.323Z,2.30
2019-06-01T23:20:08.943Z,2.90
2019-06-01T23:23:12.180Z,2.97
2019-06-01T23:26:15.537Z,2.43
2019-06-01T23:29:19.077Z,2.47
2019-06-01T23:32:22.399Z,2.10
2019-06-01T23:35:26.629Z,2.00
2019-06-01T23:38:30.820Z,1.90
2019-06-01T23:41:33.818Z,2.30
2019-06-01T23:44:37.845Z,2.97
2019-06-01T23:47:40.780Z,2.40
2019-06-01T23:50:44.039Z,2.30
2019-06-01T23:53:47.290Z,2.20
2019-06-01T23:56:50.564Z,2.30
2019-06-01T23:59:53.490Z,2.13
